createdAt,value
2019-02-05T00:00:38.239Z,1.09
2019-02-05T00:01:39.415Z,1.18
2019-02-05T00:02:38.265Z,1.04
2019-02-05T00:03:52.687Z,1.04
2019-02-05T00:04:53.052Z,1.12
2019-02-05T00:05:38.306Z,1.18
2019-02-05T00:06:38.316Z,1.14
2019-02-05T00:07:38.328Z,1.2
2019-02-05T00:08:38.338Z,1.18
2019-02-05T00:09:38.883Z,1.14
2019-02-05T00:10:38.365Z,1.23
2019-02-05T00:11:38.369Z,1.18
2019-02-05T00:12:38.399Z,1.24
2019-02-05T00:13:38.443Z,1.29
2019-02-05T00:14:38.406Z,1.3
2019-02-05T00:15:38.427Z,1.18
2019-02-05T00:16:38.616Z,1.15
2019-02-05T00:17:38.782Z,1.14
2019-02-05T00:18:38.451Z,1.23
2019-02-05T00:19:38.469Z,1.24
2019-02-05T00:20:53.134Z,1.24
2019-02-05T00:21:38.497Z,1.22
2019-02-05T00:23:38.508Z,1.22
2019-02-05T00:24:38.779Z,1.22
2019-02-05T00:25:38.620Z,1.14
2019-02-05T00:27:38.562Z,1.11
2019-02-05T00:28:53.228Z,1.11
2019-02-05T00:29:38.592Z,1.09
2019-02-05T00:30:38.599Z,1.16
2019-02-05T00:31:38.613Z,1.04
2019-02-05T00:32:39.262Z,1.05
2019-02-05T00:33:38.630Z,1.12
2019-02-05T00:34:38.637Z,1.15
2019-02-05T00:35:38.660Z,1.18
2019-02-05T00:36:53.321Z,1.11
2019-02-05T00:37:38.684Z,1.14
2019-02-05T00:38:38.699Z,1.14
2019-02-05T00:39:38.707Z,1.15
2019-02-05T00:40:39.482Z,1.11
2019-02-05T00:41:53.386Z,1.09
2019-02-05T00:42:38.734Z,1.12
2019-02-05T00:43:38.754Z,1.12
2019-02-05T00:44:38.764Z,1.08
2019-02-05T00:45:38.775Z,1.14
2019-02-05T00:46:38.791Z,1.22
2019-02-05T00:47:38.797Z,1.18
2019-02-05T00:48:39.043Z,1.09
2019-02-05T00:49:38.824Z,1.16
2019-02-05T00:50:38.848Z,1.11
2019-02-05T00:51:53.507Z,1.14
2019-02-05T00:52:38.856Z,1.18
2019-02-05T00:53:38.867Z,1.18
2019-02-05T00:54:38.882Z,1.2
2019-02-05T00:56:38.966Z,1.22
2019-02-05T00:57:38.923Z,1.27
2019-02-05T00:58:38.926Z,1.14
2019-02-05T00:59:38.933Z,1.23
2019-02-05T01:00:38.953Z,1.22
2019-02-05T01:01:38.968Z,1.26
2019-02-05T01:02:38.976Z,1.15
2019-02-05T01:03:39.233Z,1.15
2019-02-05T01:04:38.996Z,1.11
2019-02-05T01:05:39.010Z,1.11
2019-02-05T01:06:39.022Z,1.16
2019-02-05T01:07:39.034Z,1.06
2019-02-05T01:08:39.074Z,1.15
2019-02-05T01:09:39.055Z,1.2
2019-02-05T01:10:39.200Z,1.12
2019-02-05T01:11:40.169Z,1.12
2019-02-05T01:12:39.092Z,1.06
2019-02-05T01:13:53.769Z,1.24
2019-02-05T01:14:39.114Z,1.11
2019-02-05T01:15:39.133Z,1.16
2019-02-05T01:16:39.150Z,1.08
2019-02-05T01:17:39.151Z,1.12
2019-02-05T01:18:39.161Z,1.2
2019-02-05T01:19:39.773Z,1.14
2019-02-05T01:20:39.189Z,1.14
2019-02-05T01:21:39.203Z,1.16
2019-02-05T01:22:39.212Z,1.16
2019-02-05T01:23:53.887Z,1.2
2019-02-05T01:24:39.244Z,1.26
2019-02-05T01:25:39.252Z,1.15
2019-02-05T01:26:39.265Z,1.26
2019-02-05T01:27:39.944Z,1.29
2019-02-05T01:28:39.287Z,1.36
2019-02-05T01:29:53.956Z,1.33
2019-02-05T01:30:39.314Z,1.36
2019-02-05T01:31:39.319Z,1.34
2019-02-05T01:32:53.988Z,1.33
2019-02-05T01:33:39.341Z,1.37
2019-02-05T01:34:39.358Z,1.33
2019-02-05T01:35:39.752Z,1.27
2019-02-05T01:36:39.383Z,1.18
2019-02-05T01:37:40.966Z,1.3
2019-02-05T01:38:39.404Z,1.3
2019-02-05T01:39:54.071Z,1.3
2019-02-05T01:40:39.431Z,1.29
2019-02-05T01:41:39.438Z,1.27
2019-02-05T01:42:39.643Z,1.23
2019-02-05T01:43:39.461Z,1.3
2019-02-05T01:44:39.474Z,1.29
2019-02-05T01:45:39.483Z,1.34
2019-02-05T01:46:39.509Z,1.34
2019-02-05T01:47:54.168Z,1.32
2019-02-05T01:48:39.523Z,1.34
2019-02-05T01:49:39.544Z,1.42
2019-02-05T01:50:40.214Z,1.41
2019-02-05T01:51:39.561Z,1.27
2019-02-05T01:52:39.570Z,1.45
2019-02-05T01:53:39.579Z,1.48
2019-02-05T01:54:39.593Z,1.47
2019-02-05T01:55:54.261Z,1.33
2019-02-05T01:56:45.714Z,1.47
2019-02-05T01:57:39.630Z,1.45
2019-02-05T01:59:39.656Z,1.47
2019-02-05T02:00:39.673Z,1.4
2019-02-05T02:01:39.782Z,1.41
2019-02-05T02:02:39.689Z,1.4
2019-02-05T02:03:39.702Z,1.48
2019-02-05T02:04:39.715Z,1.42
2019-02-05T02:05:39.736Z,1.54
2019-02-05T02:06:40.045Z,1.54
2019-02-05T02:08:39.763Z,1.58
2019-02-05T02:09:39.771Z,1.55
2019-02-05T02:10:39.782Z,1.52
2019-02-05T02:11:54.458Z,1.6
2019-02-05T02:12:39.920Z,1.65
2019-02-05T02:13:39.922Z,1.62
2019-02-05T02:14:39.831Z,1.63
2019-02-05T02:15:39.847Z,1.7
2019-02-05T02:16:39.858Z,1.63
2019-02-05T02:17:39.862Z,1.7
2019-02-05T02:18:39.883Z,1.62
2019-02-05T02:19:39.892Z,1.62
2019-02-05T02:20:39.913Z,1.69
2019-02-05T02:21:54.841Z,1.7
2019-02-05T02:22:39.924Z,1.6
2019-02-05T02:23:39.942Z,1.66
2019-02-05T02:24:39.957Z,1.68
2019-02-05T02:25:39.975Z,1.76
2019-02-05T02:26:54.933Z,1.8
2019-02-05T02:27:40.068Z,1.69
2019-02-05T02:28:40.016Z,1.7
2019-02-05T02:29:40.366Z,1.76
2019-02-05T02:30:40.046Z,1.73
2019-02-05T02:31:40.044Z,1.79
2019-02-05T02:32:40.062Z,1.81
2019-02-05T02:33:39.567Z,1.72
2019-02-05T02:34:40.077Z,1.73
2019-02-05T02:35:40.088Z,1.77
2019-02-05T02:36:40.258Z,1.69
2019-02-05T02:37:40.134Z,1.79
2019-02-05T02:38:40.125Z,1.77
2019-02-05T02:39:40.133Z,1.79
2019-02-05T02:40:40.152Z,1.77
2019-02-05T02:41:40.157Z,1.84
2019-02-05T02:42:40.168Z,1.86
2019-02-05T02:43:54.860Z,1.76
2019-02-05T02:44:40.724Z,1.77
2019-02-05T02:45:40.210Z,1.83
2019-02-05T02:46:40.229Z,1.73
2019-02-05T02:47:40.237Z,1.84
2019-02-05T02:48:40.259Z,1.76
2019-02-05T02:50:40.268Z,1.73
2019-02-05T02:51:40.285Z,1.87
2019-02-05T02:52:40.912Z,1.8
2019-02-05T02:53:40.319Z,1.81
2019-02-05T02:54:40.330Z,1.81
2019-02-05T02:55:40.337Z,1.86
2019-02-05T02:56:40.343Z,1.87
2019-02-05T02:57:40.354Z,1.87
2019-02-05T02:58:55.034Z,1.95
2019-02-05T02:59:40.383Z,1.86
2019-02-05T03:00:40.745Z,1.91
2019-02-05T03:01:40.419Z,1.84
2019-02-05T03:02:55.070Z,1.87
2019-02-05T03:03:40.434Z,1.87
2019-02-05T03:04:40.446Z,1.88
2019-02-05T03:05:40.476Z,1.87
2019-02-05T03:06:40.465Z,1.9
2019-02-05T03:07:41.119Z,1.84
2019-02-05T03:08:40.491Z,1.95
2019-02-05T03:09:40.500Z,1.9
2019-02-05T03:10:40.519Z,2.02
2019-02-05T03:11:40.525Z,1.95
2019-02-05T03:12:55.195Z,1.98
2019-02-05T03:13:40.550Z,2.02
2019-02-05T03:14:55.223Z,1.91
2019-02-05T03:15:40.689Z,2
2019-02-05T03:16:40.605Z,2.03
2019-02-05T03:17:40.630Z,2.05
2019-02-05T03:18:40.623Z,2.09
2019-02-05T03:19:40.623Z,2.09
2019-02-05T03:20:40.649Z,2.1
2019-02-05T03:21:40.919Z,2.12
2019-02-05T03:22:55.322Z,2.1
2019-02-05T03:23:40.682Z,2.07
2019-02-05T03:24:40.789Z,2.16
2019-02-05T03:25:40.801Z,2.09
2019-02-05T03:26:40.843Z,2.1
2019-02-05T03:27:40.720Z,2.16
2019-02-05T03:28:40.871Z,2.23
2019-02-05T03:29:40.747Z,2.09
2019-02-05T03:31:40.812Z,2.14
2019-02-05T03:32:40.824Z,2.23
2019-02-05T03:33:40.803Z,2.23
2019-02-05T03:34:40.819Z,2.09
2019-02-05T03:35:40.828Z,2.14
2019-02-05T03:36:41.461Z,2.1
2019-02-05T03:37:40.855Z,2.12
2019-02-05T03:39:40.870Z,2.1
2019-02-05T03:41:40.899Z,2.16
2019-02-05T03:42:40.924Z,2.1
2019-02-05T03:43:41.562Z,2.14
2019-02-05T03:44:40.928Z,2.14
2019-02-05T03:45:40.942Z,2.12
2019-02-05T03:46:55.608Z,2.1
2019-02-05T03:47:41.072Z,2.09
2019-02-05T03:48:40.990Z,2.17
2019-02-05T03:49:41.004Z,2.02
2019-02-05T03:50:41.404Z,2.1
2019-02-05T03:51:41.029Z,2.16
2019-02-05T03:52:55.674Z,2.18
2019-02-05T03:53:41.049Z,2.1
2019-02-05T03:54:41.066Z,2.2
2019-02-05T03:55:41.076Z,2.09
2019-02-05T03:56:41.082Z,2.12
2019-02-05T03:57:41.098Z,2.14
2019-02-05T04:01:55.787Z,2.1
2019-02-05T04:02:41.213Z,2.18
2019-02-05T04:03:41.162Z,2.16
2019-02-05T04:05:41.196Z,2.24
2019-02-05T04:06:41.654Z,2.16
2019-02-05T04:07:41.219Z,2.17
2019-02-05T04:08:41.222Z,2.09
2019-02-05T04:09:41.257Z,2.16
2019-02-05T04:10:41.240Z,2.21
2019-02-05T04:11:41.258Z,2.16
2019-02-05T04:12:41.291Z,2.2
2019-02-05T04:13:56.089Z,2.23
2019-02-05T04:14:41.307Z,2.17
2019-02-05T04:15:41.310Z,2.17
2019-02-05T04:16:41.323Z,2.28
2019-02-05T04:17:41.330Z,2.18
2019-02-05T04:18:41.353Z,2.23
2019-02-05T04:19:41.372Z,2.25
2019-02-05T04:20:41.368Z,2.17
2019-02-05T04:21:41.822Z,2.17
2019-02-05T04:22:41.397Z,2.18
2019-02-05T04:24:41.438Z,2.17
2019-02-05T04:25:41.439Z,2.23
2019-02-05T04:26:41.443Z,2.21
2019-02-05T04:27:50.079Z,2.23
2019-02-05T04:28:41.504Z,2.17
2019-02-05T04:29:42.092Z,2.27
2019-02-05T04:30:41.495Z,2.25
2019-02-05T04:31:41.518Z,2.25
2019-02-05T04:32:41.512Z,2.18
2019-02-05T04:33:56.189Z,2.3
2019-02-05T04:35:41.553Z,2.28
2019-02-05T04:36:41.639Z,2.31
2019-02-05T04:37:56.230Z,2.42
2019-02-05T04:38:41.599Z,2.34
2019-02-05T04:40:41.616Z,2.3
2019-02-05T04:41:56.292Z,2.24
2019-02-05T04:42:41.650Z,2.24
2019-02-05T04:43:41.663Z,2.21
2019-02-05T04:44:42.049Z,2.18
2019-02-05T04:45:41.756Z,2.17
2019-02-05T04:46:41.693Z,2.21
2019-02-05T04:47:41.704Z,2.28
2019-02-05T04:48:43.615Z,2.25
2019-02-05T04:49:56.385Z,2.23
2019-02-05T04:51:41.749Z,2.27
2019-02-05T04:52:42.398Z,2.23
2019-02-05T04:53:41.779Z,2.21
2019-02-05T04:54:41.801Z,2.1
2019-02-05T04:55:41.808Z,2.09
2019-02-05T04:56:41.840Z,2.17
2019-02-05T04:57:41.588Z,2.12
2019-02-05T04:58:41.844Z,2.06
2019-02-05T04:59:42.105Z,1.93
2019-02-05T05:00:41.862Z,1.88
2019-02-05T05:01:41.873Z,1.93
2019-02-05T05:02:41.894Z,1.84
2019-02-05T05:03:56.561Z,1.81
2019-02-05T05:04:41.913Z,1.8
2019-02-05T05:06:41.934Z,1.79
2019-02-05T05:07:56.827Z,1.76
2019-02-05T05:08:56.613Z,1.86
2019-02-05T05:09:41.980Z,1.81
2019-02-05T05:10:41.987Z,1.79
2019-02-05T05:11:43.624Z,1.77
2019-02-05T05:12:42.019Z,1.8
2019-02-05T05:13:42.032Z,1.77
2019-02-05T05:16:41.928Z,1.77
2019-02-05T05:17:42.081Z,1.73
2019-02-05T05:18:42.094Z,1.86
2019-02-05T05:19:42.103Z,1.83
2019-02-05T05:20:42.119Z,1.86
2019-02-05T05:21:56.780Z,1.8
2019-02-05T05:22:42.484Z,1.8
2019-02-05T05:23:45.025Z,1.77
2019-02-05T05:24:42.164Z,1.65
2019-02-05T05:25:42.173Z,1.66
2019-02-05T05:26:42.190Z,1.68
2019-02-05T05:27:42.209Z,1.62
2019-02-05T05:28:42.211Z,1.68
2019-02-05T05:29:42.540Z,1.73
2019-02-05T05:31:42.244Z,1.7
2019-02-05T05:32:42.249Z,1.68
2019-02-05T05:33:42.273Z,1.68
2019-02-05T05:34:42.283Z,1.63
2019-02-05T05:35:48.838Z,1.66
2019-02-05T05:37:42.892Z,1.62
2019-02-05T05:38:42.323Z,1.66
2019-02-05T05:39:42.346Z,1.79
2019-02-05T05:40:57.003Z,1.65
2019-02-05T05:42:42.390Z,1.69
2019-02-05T05:43:42.434Z,1.73
2019-02-05T05:44:42.711Z,1.62
2019-02-05T05:45:42.699Z,1.68
2019-02-05T05:46:42.429Z,1.65
2019-02-05T05:47:42.455Z,1.73
2019-02-05T05:48:42.459Z,1.68
2019-02-05T05:49:42.567Z,1.63
2019-02-05T05:50:42.497Z,1.65
2019-02-05T05:51:42.498Z,1.7
2019-02-05T05:52:43.148Z,1.72
2019-02-05T05:53:42.509Z,1.68
2019-02-05T05:54:42.516Z,1.77
2019-02-05T05:55:42.619Z,1.79
2019-02-05T05:56:42.545Z,1.79
2019-02-05T05:58:42.582Z,1.84
2019-02-05T05:59:42.956Z,1.81
2019-02-05T06:00:42.606Z,1.83
2019-02-05T06:01:42.603Z,1.77
2019-02-05T06:03:42.645Z,1.86
2019-02-05T06:04:42.654Z,1.86
2019-02-05T06:06:42.681Z,1.9
2019-02-05T06:07:43.228Z,1.99
2019-02-05T06:08:57.443Z,1.91
2019-02-05T06:09:42.834Z,1.91
2019-02-05T06:10:42.742Z,1.91
2019-02-05T06:11:42.736Z,1.95
2019-02-05T06:12:57.391Z,1.9
2019-02-05T06:13:42.744Z,1.9
2019-02-05T06:14:43.191Z,1.87
2019-02-05T06:15:42.775Z,1.87
2019-02-05T06:16:42.794Z,1.93
2019-02-05T06:17:42.811Z,1.98
2019-02-05T06:18:42.818Z,1.98
2019-02-05T06:20:42.845Z,1.98
2019-02-05T06:21:42.870Z,1.88
2019-02-05T06:22:43.180Z,1.91
2019-02-05T06:23:42.878Z,2
2019-02-05T06:24:57.542Z,1.95
2019-02-05T06:25:42.906Z,1.98
2019-02-05T06:26:42.910Z,2.02
2019-02-05T06:27:42.924Z,2.05
2019-02-05T06:28:42.937Z,2.02
2019-02-05T06:29:43.322Z,2.02
2019-02-05T06:30:57.721Z,2.03
2019-02-05T06:31:57.620Z,2.03
2019-02-05T06:32:42.985Z,2.12
2019-02-05T06:35:43.037Z,2.07
2019-02-05T06:36:43.040Z,2.1
2019-02-05T06:37:43.383Z,2.1
2019-02-05T06:38:44.669Z,2.06
2019-02-05T06:39:43.066Z,1.98
2019-02-05T06:40:57.743Z,2.17
2019-02-05T06:41:43.196Z,2.16
2019-02-05T06:42:43.116Z,2.16
2019-02-05T06:43:43.120Z,2.16
2019-02-05T06:44:43.592Z,2.12
2019-02-05T06:45:46.485Z,2.03
2019-02-05T06:46:42.911Z,2.12
2019-02-05T06:47:43.186Z,2.18
2019-02-05T06:48:43.181Z,2.1
2019-02-05T06:49:43.191Z,2.17
2019-02-05T06:50:43.201Z,2.07
2019-02-05T06:52:57.887Z,2.1
2019-02-05T06:53:43.242Z,2.2
2019-02-05T06:54:43.256Z,2.16
2019-02-05T06:55:43.264Z,2.25
2019-02-05T06:56:57.933Z,2.2
2019-02-05T06:57:43.299Z,2.21
2019-02-05T06:58:51.376Z,2.2
2019-02-05T06:59:43.803Z,2.21
2019-02-05T07:00:43.325Z,2.07
2019-02-05T07:01:43.473Z,2.17
2019-02-05T07:02:43.351Z,2.21
2019-02-05T07:03:43.365Z,2.21
2019-02-05T07:04:43.383Z,2.23
2019-02-05T07:06:43.405Z,2.23
2019-02-05T07:07:43.741Z,2.34
2019-02-05T07:08:45.088Z,2.27
2019-02-05T07:09:43.438Z,2.28
2019-02-05T07:10:43.465Z,2.28
2019-02-05T07:11:58.146Z,2.35
2019-02-05T07:12:43.480Z,2.3
2019-02-05T07:13:43.493Z,2.25
2019-02-05T07:14:44.159Z,2.28
2019-02-05T07:15:43.518Z,2.24
2019-02-05T07:16:43.530Z,2.31
2019-02-05T07:17:54.419Z,2.35
2019-02-05T07:18:43.541Z,2.42
2019-02-05T07:19:43.571Z,2.42
2019-02-05T07:20:43.574Z,2.43
2019-02-05T07:21:43.602Z,2.46
2019-02-05T07:22:43.956Z,2.39
2019-02-05T07:23:43.617Z,2.43
2019-02-05T07:24:43.632Z,2.41
2019-02-05T07:25:58.291Z,2.48
2019-02-05T07:26:43.397Z,2.34
2019-02-05T07:27:43.664Z,2.38
2019-02-05T07:28:43.687Z,2.38
2019-02-05T07:29:58.743Z,2.48
2019-02-05T07:31:43.703Z,2.39
2019-02-05T07:32:43.749Z,2.36
2019-02-05T07:33:43.758Z,2.45
2019-02-05T07:34:43.807Z,2.49
2019-02-05T07:35:43.769Z,2.35
2019-02-05T07:36:44.245Z,2.42
2019-02-05T07:37:58.444Z,2.52
2019-02-05T07:38:43.875Z,2.49
2019-02-05T07:39:43.824Z,2.46
2019-02-05T07:40:43.862Z,2.48
2019-02-05T07:41:43.870Z,2.54
2019-02-05T07:42:43.879Z,2.45
2019-02-05T07:43:58.529Z,2.54
2019-02-05T07:44:44.966Z,2.45
2019-02-05T07:45:43.899Z,2.49
2019-02-05T07:47:43.935Z,2.53
2019-02-05T07:48:43.948Z,2.61
2019-02-05T07:49:43.937Z,2.63
2019-02-05T07:50:44.279Z,2.64
2019-02-05T07:51:43.959Z,2.72
2019-02-05T07:53:44.013Z,2.61
2019-02-05T07:54:44.139Z,2.63
2019-02-05T07:55:44.031Z,2.72
2019-02-05T07:56:44.113Z,2.71
2019-02-05T07:57:44.108Z,2.82
2019-02-05T07:58:44.486Z,2.78
2019-02-05T08:00:44.101Z,2.89
2019-02-05T08:01:44.121Z,2.92
2019-02-05T08:02:58.763Z,2.89
2019-02-05T08:03:44.130Z,2.81
2019-02-05T08:04:44.152Z,2.87
2019-02-05T08:05:44.525Z,2.96
2019-02-05T08:07:44.171Z,2.96
2019-02-05T08:08:58.835Z,2.82
2019-02-05T08:09:44.200Z,2.93
2019-02-05T08:10:44.199Z,2.93
2019-02-05T08:11:46.281Z,2.96
2019-02-05T08:12:44.811Z,2.95
2019-02-05T08:13:44.291Z,2.93
2019-02-05T08:14:44.279Z,2.95
2019-02-05T08:15:58.913Z,2.96
2019-02-05T08:16:44.286Z,3.02
2019-02-05T08:17:44.314Z,3.02
2019-02-05T08:18:44.497Z,2.92
2019-02-05T08:19:44.663Z,2.99
2019-02-05T08:20:44.325Z,3.05
2019-02-05T08:21:44.337Z,3.2
2019-02-05T08:22:44.387Z,3.14
2019-02-05T08:24:44.390Z,3.23
2019-02-05T08:25:44.410Z,3.14
2019-02-05T08:26:59.458Z,3.21
2019-02-05T08:27:44.428Z,3.18
2019-02-05T08:28:45.977Z,3.15
2019-02-05T08:29:44.448Z,3.21
2019-02-05T08:30:44.496Z,3.18
2019-02-05T08:31:59.133Z,3.23
2019-02-05T08:32:44.500Z,3.33
2019-02-05T08:33:44.742Z,3.42
2019-02-05T08:34:44.516Z,3.4
2019-02-05T08:35:44.543Z,3.39
2019-02-05T08:36:44.292Z,3.43
2019-02-05T08:38:59.218Z,3.61
2019-02-05T08:39:44.595Z,3.61
2019-02-05T08:40:44.602Z,3.54
2019-02-05T08:41:45.015Z,3.61
2019-02-05T08:43:44.633Z,3.57
2019-02-05T08:44:44.645Z,3.54
2019-02-05T08:45:55.944Z,3.45
2019-02-05T08:46:59.312Z,3.42
2019-02-05T08:49:44.714Z,3.48
2019-02-05T08:50:44.719Z,3.47
2019-02-05T08:51:44.752Z,3.39
2019-02-05T08:52:44.764Z,3.32
2019-02-05T08:53:44.752Z,3.36
2019-02-05T08:54:44.766Z,3.48
2019-02-05T08:55:45.408Z,3.42
2019-02-05T08:56:44.810Z,3.42
2019-02-05T08:57:44.808Z,3.48
2019-02-05T08:58:44.821Z,3.47
2019-02-05T08:59:44.843Z,3.5
2019-02-05T09:01:44.913Z,3.45
2019-02-05T09:02:45.065Z,3.42
2019-02-05T09:03:44.907Z,3.42
2019-02-05T09:04:59.563Z,3.47
2019-02-05T09:05:44.675Z,3.45
2019-02-05T09:06:44.928Z,3.48
2019-02-05T09:07:44.971Z,3.48
2019-02-05T09:08:44.949Z,3.51
2019-02-05T09:09:44.971Z,3.47
2019-02-05T09:10:45.723Z,3.61
2019-02-05T09:11:44.986Z,3.55
2019-02-05T09:12:45.010Z,3.58
2019-02-05T09:13:45.038Z,3.58
2019-02-05T09:14:45.033Z,3.58
2019-02-05T09:15:45.051Z,3.6
2019-02-05T09:16:45.055Z,3.66
2019-02-05T09:17:45.515Z,3.57
2019-02-05T09:18:59.741Z,3.6
2019-02-05T09:19:45.098Z,3.62
2019-02-05T09:20:45.128Z,3.62
2019-02-05T09:22:45.135Z,3.69
2019-02-05T09:23:45.148Z,3.61
2019-02-05T09:24:45.159Z,3.61
2019-02-05T09:25:47.829Z,3.6
2019-02-05T09:26:45.197Z,3.6
2019-02-05T09:27:59.856Z,3.6
2019-02-05T09:28:45.242Z,3.6
2019-02-05T09:29:45.350Z,3.73
2019-02-05T09:30:45.256Z,3.6
2019-02-05T09:31:45.278Z,3.7
2019-02-05T09:32:45.793Z,3.75
2019-02-05T09:33:45.081Z,3.72
2019-02-05T09:35:00.379Z,3.72
2019-02-05T09:35:45.436Z,3.7
2019-02-05T09:36:45.326Z,3.73
2019-02-05T09:37:45.329Z,3.79
2019-02-05T09:38:45.346Z,3.73
2019-02-05T09:39:45.557Z,3.8
2019-02-05T09:40:45.379Z,3.84
2019-02-05T09:41:45.386Z,3.87
2019-02-05T09:42:45.508Z,3.94
2019-02-05T09:43:45.508Z,4.02
2019-02-05T09:44:45.420Z,4.02
2019-02-05T09:45:45.451Z,4.04
2019-02-05T09:46:45.453Z,4.09
2019-02-05T09:47:45.863Z,4.18
2019-02-05T09:48:45.473Z,4.16
2019-02-05T09:49:45.509Z,4.16
2019-02-05T09:51:00.158Z,4.12
2019-02-05T09:51:45.575Z,4.18
2019-02-05T09:54:46.081Z,4.24
2019-02-05T09:55:45.575Z,4.2
2019-02-05T09:57:45.609Z,4.3
2019-02-05T09:58:45.623Z,4.27
2019-02-05T09:59:50.201Z,4.22
2019-02-05T10:00:45.665Z,4.26
2019-02-05T10:01:45.924Z,4.23
2019-02-05T10:02:45.822Z,4.24
2019-02-05T10:03:45.704Z,4.29
2019-02-05T10:04:45.690Z,4.37
2019-02-05T10:05:45.713Z,4.37
2019-02-05T10:07:00.370Z,4.32
2019-02-05T10:07:45.749Z,4.3
2019-02-05T10:08:45.765Z,4.3
2019-02-05T10:09:46.416Z,4.32
2019-02-05T10:10:45.781Z,4.37
2019-02-05T10:12:00.448Z,4.2
2019-02-05T10:12:46.949Z,4.42
2019-02-05T10:13:45.844Z,4.27
2019-02-05T10:14:45.855Z,4.32
2019-02-05T10:15:45.879Z,4.33
2019-02-05T10:16:46.404Z,4.3
2019-02-05T10:17:45.873Z,4.37
2019-02-05T10:18:48.558Z,4.33
2019-02-05T10:19:45.900Z,4.34
2019-02-05T10:20:45.926Z,4.34
2019-02-05T10:22:00.577Z,4.3
2019-02-05T10:22:45.933Z,4.37
2019-02-05T10:23:46.089Z,4.4
2019-02-05T10:24:46.122Z,4.34
2019-02-05T10:25:45.997Z,4.37
2019-02-05T10:26:46.009Z,4.34
2019-02-05T10:27:46.035Z,4.34
2019-02-05T10:28:46.020Z,4.44
2019-02-05T10:30:46.058Z,4.48
2019-02-05T10:31:46.744Z,4.41
2019-02-05T10:32:46.103Z,4.45
2019-02-05T10:33:57.252Z,4.44
2019-02-05T10:34:46.107Z,4.55
2019-02-05T10:35:46.137Z,4.48
2019-02-05T10:36:46.137Z,4.5
2019-02-05T10:37:46.149Z,4.45
2019-02-05T10:38:46.325Z,4.52
2019-02-05T10:39:46.458Z,4.48
2019-02-05T10:40:46.193Z,4.48
2019-02-05T10:41:46.204Z,4.6
2019-02-05T10:42:49.058Z,4.59
2019-02-05T10:44:00.889Z,4.67
2019-02-05T10:44:46.263Z,4.66
2019-02-05T10:46:00.911Z,4.69
2019-02-05T10:46:46.892Z,4.69
2019-02-05T10:47:46.290Z,4.66
2019-02-05T10:48:46.401Z,4.65
2019-02-05T10:49:46.318Z,4.67
2019-02-05T10:50:46.441Z,4.67
2019-02-05T10:51:46.344Z,4.72
2019-02-05T10:52:46.358Z,4.67
2019-02-05T10:54:46.383Z,4.72
2019-02-05T10:55:46.420Z,4.72
2019-02-05T10:56:46.440Z,4.75
2019-02-05T10:58:01.083Z,4.7
2019-02-05T10:58:46.437Z,4.7
2019-02-05T10:59:46.452Z,4.73
2019-02-05T11:00:46.532Z,4.72
2019-02-05T11:01:46.863Z,4.77
2019-02-05T11:02:46.493Z,4.7
2019-02-05T11:03:46.538Z,4.73
2019-02-05T11:04:46.533Z,4.77
2019-02-05T11:05:46.645Z,4.72
2019-02-05T11:06:46.552Z,4.72
2019-02-05T11:07:46.567Z,4.75
2019-02-05T11:08:47.040Z,4.78
2019-02-05T11:10:01.243Z,4.85
2019-02-05T11:11:01.251Z,4.88
2019-02-05T11:11:46.611Z,4.82
2019-02-05T11:12:46.626Z,4.92
2019-02-05T11:13:46.744Z,4.89
2019-02-05T11:14:46.676Z,4.88
2019-02-05T11:15:46.996Z,4.94
2019-02-05T11:16:46.702Z,4.88
2019-02-05T11:17:46.710Z,4.89
2019-02-05T11:18:46.729Z,4.88
2019-02-05T11:19:46.736Z,4.84
2019-02-05T11:20:46.749Z,4.89
2019-02-05T11:21:46.762Z,4.89
2019-02-05T11:22:46.869Z,4.97
2019-02-05T11:23:47.058Z,4.92
2019-02-05T11:24:46.802Z,4.96
2019-02-05T11:26:01.456Z,5.07
2019-02-05T11:26:46.824Z,5.07
2019-02-05T11:27:48.471Z,5.09
2019-02-05T11:28:46.650Z,5.09
2019-02-05T11:29:46.889Z,5.04
2019-02-05T11:31:46.895Z,5.12
2019-02-05T11:32:46.925Z,5.1
2019-02-05T11:33:46.931Z,5.13
2019-02-05T11:34:46.954Z,5.09
2019-02-05T11:35:46.974Z,5.09
2019-02-05T11:36:46.997Z,5.04
2019-02-05T11:37:47.274Z,5.13
2019-02-05T11:38:47.010Z,5.1
2019-02-05T11:39:47.019Z,5.17
2019-02-05T11:40:47.032Z,5.18
2019-02-05T11:42:01.687Z,5.2
2019-02-05T11:42:47.068Z,5.21
2019-02-05T11:44:01.712Z,5.2
2019-02-05T11:44:47.070Z,5.22
2019-02-05T11:45:47.424Z,5.27
2019-02-05T11:46:47.109Z,5.36
2019-02-05T11:48:47.140Z,5.3
2019-02-05T11:49:47.182Z,5.28
2019-02-05T11:50:47.171Z,5.39
2019-02-05T11:51:47.182Z,5.35
2019-02-05T11:52:47.611Z,5.38
2019-02-05T11:53:47.227Z,5.4
2019-02-05T11:54:47.217Z,5.42
2019-02-05T11:55:47.242Z,5.4
2019-02-05T11:57:01.904Z,5.42
2019-02-05T11:57:47.275Z,5.45
2019-02-05T11:58:47.285Z,5.39
2019-02-05T11:59:47.655Z,5.36
2019-02-05T12:00:47.337Z,5.4
2019-02-05T12:01:47.360Z,5.46
2019-02-05T12:02:49.029Z,5.43
2019-02-05T12:03:47.346Z,5.49
2019-02-05T12:04:47.394Z,5.39
2019-02-05T12:05:47.382Z,5.38
2019-02-05T12:06:47.400Z,5.39
2019-02-05T12:07:47.960Z,5.42
2019-02-05T12:08:47.452Z,5.43
2019-02-05T12:10:47.443Z,5.46
2019-02-05T12:12:47.490Z,5.53
2019-02-05T12:13:47.509Z,5.54
2019-02-05T12:14:50.274Z,5.54
2019-02-05T12:15:47.537Z,5.51
2019-02-05T12:16:47.549Z,5.58
2019-02-05T12:17:47.560Z,5.54
2019-02-05T12:18:47.578Z,5.51
2019-02-05T12:19:47.696Z,5.57
2019-02-05T12:20:47.590Z,5.49
2019-02-05T12:22:02.584Z,5.6
2019-02-05T12:22:47.625Z,5.46
2019-02-05T12:23:47.655Z,5.53
2019-02-05T12:24:47.650Z,5.54
2019-02-05T12:25:47.677Z,5.54
2019-02-05T12:27:47.684Z,5.56
2019-02-05T12:29:47.727Z,5.51
2019-02-05T12:30:50.196Z,5.56
2019-02-05T12:31:47.746Z,5.57
2019-02-05T12:32:47.779Z,5.58
2019-02-05T12:33:47.771Z,5.56
2019-02-05T12:34:47.798Z,5.51
2019-02-05T12:35:47.803Z,5.49
2019-02-05T12:36:48.452Z,5.58
2019-02-05T12:37:47.832Z,5.71
2019-02-05T12:38:47.844Z,5.71
2019-02-05T12:39:47.988Z,5.61
2019-02-05T12:40:47.881Z,5.65
2019-02-05T12:41:47.896Z,5.78
2019-02-05T12:42:47.908Z,5.78
2019-02-05T12:43:48.019Z,5.82
2019-02-05T12:45:02.686Z,5.76
2019-02-05T12:45:47.952Z,5.82
2019-02-05T12:46:47.954Z,5.78
2019-02-05T12:47:48.001Z,5.83
2019-02-05T12:48:48.006Z,5.89
2019-02-05T12:49:48.011Z,5.85
2019-02-05T12:50:48.130Z,5.86
2019-02-05T12:52:03.050Z,5.94
2019-02-05T12:52:48.043Z,6.03
2019-02-05T12:53:48.075Z,5.97
2019-02-05T12:54:48.078Z,5.99
2019-02-05T12:55:48.098Z,5.97
2019-02-05T12:56:48.106Z,5.94
2019-02-05T12:57:48.117Z,6.03
2019-02-05T12:59:48.504Z,6.17
2019-02-05T13:01:03.639Z,6.15
2019-02-05T13:01:48.173Z,6.14
2019-02-05T13:02:48.186Z,6.18
2019-02-05T13:03:48.208Z,6.17
2019-02-05T13:04:48.216Z,6.19
2019-02-05T13:05:48.342Z,6.21
2019-02-05T13:06:48.480Z,6.22
2019-02-05T13:07:48.261Z,6.25
2019-02-05T13:08:48.278Z,6.28
2019-02-05T13:09:48.288Z,6.34
2019-02-05T13:10:48.068Z,6.4
2019-02-05T13:11:48.318Z,6.41
2019-02-05T13:12:48.089Z,6.41
2019-02-05T13:13:48.344Z,6.38
2019-02-05T13:14:48.870Z,6.41
2019-02-05T13:17:03.334Z,6.44
2019-02-05T13:17:48.408Z,6.41
2019-02-05T13:18:48.420Z,6.49
2019-02-05T13:19:48.487Z,6.37
2019-02-05T13:20:48.490Z,6.38
2019-02-05T13:21:48.488Z,6.3
2019-02-05T13:22:49.122Z,6.31
2019-02-05T13:24:48.509Z,6.25
2019-02-05T13:25:48.533Z,6.28
2019-02-05T13:26:48.543Z,6.3
2019-02-05T13:27:48.696Z,6.19
2019-02-05T13:28:48.574Z,6.21
2019-02-05T13:29:48.597Z,6.19
2019-02-05T13:30:49.074Z,6.11
2019-02-05T13:32:48.638Z,6.14
2019-02-05T13:33:48.750Z,6.04
2019-02-05T13:34:48.663Z,6.04
2019-02-05T13:35:48.714Z,6.01
2019-02-05T13:36:48.693Z,5.99
2019-02-05T13:37:48.712Z,5.97
2019-02-05T13:39:48.737Z,5.83
2019-02-05T13:40:48.844Z,5.9
2019-02-05T13:41:48.776Z,5.85
2019-02-05T13:42:48.792Z,5.82
2019-02-05T13:44:48.826Z,5.76
2019-02-05T13:45:49.106Z,5.83
2019-02-05T13:46:48.843Z,5.89
2019-02-05T13:47:48.872Z,5.81
2019-02-05T13:48:48.881Z,5.82
2019-02-05T13:49:48.890Z,5.79
2019-02-05T13:50:48.905Z,5.71
2019-02-05T13:51:48.922Z,5.79
2019-02-05T13:52:48.938Z,5.78
2019-02-05T13:53:49.379Z,5.57
2019-02-05T13:54:48.977Z,5.63
2019-02-05T13:55:48.978Z,5.74
2019-02-05T13:56:48.985Z,5.68
2019-02-05T13:57:49.009Z,5.63
2019-02-05T13:58:49.024Z,5.68
2019-02-05T13:59:49.031Z,5.71
2019-02-05T14:00:49.055Z,5.63
2019-02-05T14:02:04.500Z,5.65
2019-02-05T14:02:49.086Z,5.58
2019-02-05T14:04:03.752Z,5.68
2019-02-05T14:04:49.103Z,5.56
2019-02-05T14:05:49.146Z,5.72
2019-02-05T14:06:50.510Z,5.76
2019-02-05T14:07:49.149Z,5.81
2019-02-05T14:09:10.485Z,5.68
2019-02-05T14:09:49.178Z,5.78
2019-02-05T14:10:49.223Z,5.71
2019-02-05T14:11:49.227Z,5.81
2019-02-05T14:12:49.223Z,5.65
2019-02-05T14:13:49.245Z,5.65
2019-02-05T14:14:49.259Z,5.71
2019-02-05T14:15:49.283Z,5.67
2019-02-05T14:16:49.878Z,5.63
2019-02-05T14:17:49.301Z,5.68
2019-02-05T14:18:59.930Z,5.76
2019-02-05T14:20:04.000Z,5.74
2019-02-05T14:20:49.091Z,5.72
2019-02-05T14:21:49.345Z,5.67